createdAt,value
2017-04-09T00:01:56.500Z,6.60
2017-04-09T00:02:57.446Z,6.50
2017-04-09T00:03:57.737Z,6.50
2017-04-09T00:04:57.276Z,6.50
2017-04-09T00:05:56.816Z,6.60
2017-04-09T00:06:56.412Z,6.60
2017-04-09T00:07:56.083Z,6.60
2017-04-09T00:08:56.411Z,6.60
2017-04-09T00:09:56.128Z,6.60
2017-04-09T00:10:55.779Z,6.60
2017-04-09T00:11:55.433Z,6.60
2017-04-09T00:12:55.148Z,6.50
2017-04-09T00:13:55.444Z,6.40
2017-04-09T00:14:55.009Z,6.40
2017-04-09T00:15:54.783Z,6.40
2017-04-09T00:16:54.531Z,6.40
2017-04-09T00:17:54.083Z,6.30
2017-04-09T00:18:53.740Z,6.30
2017-04-09T00:19:53.359Z,6.20
2017-04-09T00:21:52.768Z,6.20
2017-04-09T00:22:53.091Z,6.20
2017-04-09T00:23:52.624Z,6.30
2017-04-09T00:24:52.200Z,6.30
2017-04-09T00:25:51.732Z,6.30
2017-04-09T00:26:51.319Z,6.30
2017-04-09T00:27:50.867Z,6.30
2017-04-09T00:28:51.143Z,6.30
2017-04-09T00:29:50.799Z,6.30
2017-04-09T00:30:50.371Z,6.30
2017-04-09T00:31:50.683Z,6.30
2017-04-09T00:32:50.982Z,6.20
2017-04-09T00:33:50.875Z,6.30
2017-04-09T00:34:50.532Z,6.30
2017-04-09T00:35:50.131Z,6.20
2017-04-09T00:36:49.724Z,6.20
2017-04-09T00:37:49.651Z,6.30
2017-04-09T00:38:49.718Z,6.30
2017-04-09T00:39:50.072Z,6.30
2017-04-09T00:40:49.648Z,6.40
2017-04-09T00:41:49.385Z,6.30
2017-04-09T00:42:49.119Z,6.30
2017-04-09T00:43:49.417Z,6.30
2017-04-09T00:44:48.982Z,6.30
2017-04-09T00:45:48.598Z,6.30
2017-04-09T00:46:48.447Z,6.30
2017-04-09T00:47:48.987Z,6.20
2017-04-09T00:48:48.533Z,6.20
2017-04-09T00:49:48.075Z,6.10
2017-04-09T00:50:47.667Z,6.10
2017-04-09T00:51:47.236Z,6.10
2017-04-09T00:52:46.788Z,6.10
2017-04-09T00:53:46.568Z,6.20
2017-04-09T00:54:46.123Z,6.20
2017-04-09T00:55:45.710Z,6.10
2017-04-09T00:56:45.343Z,6.10
2017-04-09T00:57:45.681Z,6.10
2017-04-09T00:58:45.356Z,6.10
2017-04-09T00:59:45.715Z,6.00
2017-04-09T01:00:45.745Z,6.10
2017-04-09T01:01:45.366Z,6.00
2017-04-09T01:04:45.378Z,5.90
2017-04-09T01:05:44.911Z,6.00
2017-04-09T01:06:45.191Z,5.90
2017-04-09T01:07:45.088Z,6.00
2017-04-09T01:08:45.228Z,6.00
2017-04-09T01:09:45.628Z,5.90
2017-04-09T01:10:45.268Z,6.00
2017-04-09T01:11:44.874Z,5.90
2017-04-09T01:12:44.628Z,5.90
2017-04-09T01:13:44.927Z,5.90
2017-04-09T01:14:44.467Z,5.80
2017-04-09T01:15:44.046Z,5.80
2017-04-09T01:16:44.391Z,5.70
2017-04-09T01:17:44.452Z,5.80
2017-04-09T01:18:44.049Z,5.80
2017-04-09T01:19:43.815Z,5.80
2017-04-09T01:20:43.439Z,5.80
2017-04-09T01:21:43.412Z,5.80
2017-04-09T01:22:43.328Z,5.80
2017-04-09T01:23:43.044Z,5.80
2017-04-09T01:24:42.636Z,5.80
2017-04-09T01:25:42.367Z,5.80
2017-04-09T01:26:42.843Z,5.70
2017-04-09T01:27:42.549Z,5.70
2017-04-09T01:28:42.130Z,5.70
2017-04-09T01:29:42.244Z,5.70
2017-04-09T01:30:42.156Z,5.70
2017-04-09T01:31:41.755Z,5.70
2017-04-09T01:32:41.388Z,5.80
2017-04-09T01:34:40.903Z,5.70
2017-04-09T01:35:41.280Z,5.60
2017-04-09T01:36:41.618Z,5.60
2017-04-09T01:38:41.919Z,5.40
2017-04-09T01:39:41.510Z,5.50
2017-04-09T01:40:41.147Z,5.40
2017-04-09T01:41:40.752Z,5.40
2017-04-09T01:42:41.127Z,5.40
2017-04-09T01:43:40.764Z,5.50
2017-04-09T01:44:41.164Z,5.40
2017-04-09T01:46:40.540Z,5.40
2017-04-09T01:47:40.968Z,5.30
2017-04-09T01:48:40.588Z,5.30
2017-04-09T01:50:40.727Z,5.20
2017-04-09T01:51:41.623Z,5.30
2017-04-09T01:52:41.184Z,5.30
2017-04-09T01:53:41.199Z,5.30
2017-04-09T01:54:40.787Z,5.30
2017-04-09T01:55:40.349Z,5.30
2017-04-09T01:56:40.659Z,5.20
2017-04-09T01:57:40.987Z,5.20
2017-04-09T01:58:40.547Z,5.30
2017-04-09T01:59:40.060Z,5.20
2017-04-09T02:01:39.577Z,5.30
2017-04-09T02:02:39.859Z,5.20
2017-04-09T02:03:39.543Z,5.30
2017-04-09T02:04:39.155Z,5.30
2017-04-09T02:05:38.679Z,5.20
2017-04-09T02:06:39.199Z,5.10
2017-04-09T02:07:39.651Z,5.10
2017-04-09T02:08:39.253Z,5.10
2017-04-09T02:09:39.198Z,5.10
2017-04-09T02:10:38.848Z,5.10
2017-04-09T02:11:38.808Z,5.10
2017-04-09T02:12:38.365Z,5.10
2017-04-09T02:13:37.926Z,5.00
2017-04-09T02:14:38.333Z,5.00
2017-04-09T02:15:38.615Z,5.00
2017-04-09T02:16:38.213Z,5.10
2017-04-09T02:17:37.799Z,5.10
2017-04-09T02:18:37.387Z,5.10
2017-04-09T02:19:37.143Z,5.10
2017-04-09T02:20:37.788Z,5.00
2017-04-09T02:21:37.385Z,5.10
2017-04-09T02:22:37.063Z,5.10
2017-04-09T02:23:37.383Z,5.00
2017-04-09T02:24:37.703Z,5.00
2017-04-09T02:25:37.999Z,5.00
2017-04-09T02:26:37.603Z,5.10
2017-04-09T02:28:37.032Z,5.10
2017-04-09T02:29:36.603Z,5.00
2017-04-09T02:30:36.919Z,5.00
2017-04-09T02:31:37.239Z,5.00
2017-04-09T02:32:37.833Z,4.90
2017-04-09T02:33:37.406Z,5.00
2017-04-09T02:34:37.115Z,4.90
2017-04-09T02:35:36.685Z,4.90
2017-04-09T02:36:36.258Z,4.90
2017-04-09T02:37:36.519Z,4.80
2017-04-09T02:38:36.219Z,4.80
2017-04-09T02:39:35.771Z,4.80
2017-04-09T02:40:36.475Z,4.80
2017-04-09T02:42:35.823Z,4.80
2017-04-09T02:43:35.408Z,4.80
2017-04-09T02:44:35.182Z,4.80
2017-04-09T02:45:35.540Z,4.70
2017-04-09T02:46:35.156Z,4.70
2017-04-09T02:47:35.931Z,4.70
2017-04-09T02:48:36.312Z,4.60
2017-04-09T02:49:35.887Z,4.70
2017-04-09T02:50:35.466Z,4.60
2017-04-09T02:51:35.040Z,4.60
2017-04-09T02:52:34.819Z,4.60
2017-04-09T02:53:35.489Z,4.50
2017-04-09T02:54:35.955Z,4.60
2017-04-09T02:55:35.530Z,4.50
2017-04-09T02:56:35.111Z,4.50
2017-04-09T02:57:34.924Z,4.50
2017-04-09T02:58:34.564Z,4.60
2017-04-09T02:59:34.873Z,4.50
2017-04-09T03:00:35.540Z,4.60
2017-04-09T03:01:35.137Z,4.60
2017-04-09T03:02:34.771Z,4.60
2017-04-09T03:03:34.321Z,4.60
2017-04-09T03:04:34.105Z,4.50
2017-04-09T03:05:34.694Z,4.50
2017-04-09T03:06:34.234Z,4.40
2017-04-09T03:07:33.835Z,4.40
2017-04-09T03:08:33.428Z,4.40
2017-04-09T03:09:33.696Z,4.40
2017-04-09T03:10:33.283Z,4.30
2017-04-09T03:11:32.823Z,4.40
2017-04-09T03:12:33.438Z,4.30
2017-04-09T03:13:33.779Z,4.40
2017-04-09T03:14:33.348Z,4.40
2017-04-09T03:15:33.770Z,4.30
2017-04-09T03:16:34.243Z,4.30
2017-04-09T03:17:34.030Z,4.40
2017-04-09T03:18:35.028Z,4.40
2017-04-09T03:19:35.560Z,4.40
2017-04-09T03:20:35.151Z,4.40
2017-04-09T03:21:35.520Z,4.40
2017-04-09T03:22:35.080Z,4.40
2017-04-09T03:23:35.246Z,4.40
2017-04-09T03:24:35.539Z,4.50
2017-04-09T03:25:35.247Z,4.50
2017-04-09T03:26:35.512Z,4.50
2017-04-09T03:27:35.173Z,4.40
2017-04-09T03:28:35.402Z,4.40
2017-04-09T03:29:35.720Z,4.30
2017-04-09T03:30:36.064Z,4.30
2017-04-09T03:31:35.621Z,4.30
2017-04-09T03:32:35.309Z,4.30
2017-04-09T03:33:34.891Z,4.30
2017-04-09T03:34:34.528Z,4.30
2017-04-09T03:35:34.991Z,4.20
2017-04-09T03:36:34.584Z,4.20
2017-04-09T03:37:34.188Z,4.20
2017-04-09T03:38:33.757Z,4.20
2017-04-09T03:39:33.743Z,4.20
2017-04-09T03:40:34.063Z,4.20
2017-04-09T03:41:34.360Z,4.10
2017-04-09T03:43:33.880Z,4.20
2017-04-09T03:44:34.273Z,4.20
2017-04-09T03:45:33.851Z,4.30
2017-04-09T03:46:33.456Z,4.30
2017-04-09T03:47:33.593Z,4.30
2017-04-09T03:48:33.886Z,4.20
2017-04-09T03:49:33.495Z,4.30
2017-04-09T03:50:33.042Z,4.40
2017-04-09T03:51:32.611Z,4.40
2017-04-09T03:52:32.331Z,4.30
2017-04-09T03:53:32.800Z,4.20
2017-04-09T03:54:32.712Z,4.30
2017-04-09T03:55:32.274Z,4.30
2017-04-09T03:56:31.807Z,4.20
2017-04-09T03:57:31.520Z,4.20
2017-04-09T03:58:31.871Z,4.10
2017-04-09T03:59:31.432Z,4.10
2017-04-09T04:00:31.783Z,4.00
2017-04-09T04:01:31.382Z,4.10
2017-04-09T04:02:30.937Z,4.10
2017-04-09T04:03:31.291Z,4.00
2017-04-09T04:04:32.385Z,4.00
2017-04-09T04:05:32.708Z,4.00
2017-04-09T04:06:33.057Z,4.00
2017-04-09T04:07:32.740Z,4.10
2017-04-09T04:08:32.312Z,4.10
2017-04-09T04:10:32.948Z,4.00
2017-04-09T04:11:33.472Z,3.90
2017-04-09T04:12:33.799Z,3.90
2017-04-09T04:13:33.417Z,4.00
2017-04-09T04:14:33.003Z,4.00
2017-04-09T04:15:32.681Z,4.10
2017-04-09T04:16:36.656Z,4.00
2017-04-09T04:17:36.227Z,4.10
2017-04-09T04:18:35.787Z,4.10
2017-04-09T04:19:36.178Z,4.10
2017-04-09T04:20:36.587Z,4.00
2017-04-09T04:21:36.177Z,4.10
2017-04-09T04:22:36.608Z,4.10
2017-04-09T04:23:36.148Z,4.10
2017-04-09T04:24:35.915Z,4.10
2017-04-09T04:25:36.355Z,4.10
2017-04-09T04:26:35.915Z,4.20
2017-04-09T04:27:35.570Z,4.20
2017-04-09T04:28:35.165Z,4.20
2017-04-09T04:29:34.775Z,4.20
2017-04-09T04:30:34.841Z,4.20
2017-04-09T04:31:35.345Z,4.20
2017-04-09T04:33:35.435Z,4.00
2017-04-09T04:34:35.168Z,4.10
2017-04-09T04:35:34.740Z,4.10
2017-04-09T04:36:34.724Z,4.10
2017-04-09T04:37:34.243Z,4.10
2017-04-09T04:38:33.811Z,4.10
2017-04-09T04:39:33.397Z,4.00
2017-04-09T04:40:32.968Z,4.00
2017-04-09T04:41:33.276Z,4.00
2017-04-09T04:42:33.591Z,4.00
2017-04-09T04:43:33.881Z,4.00
2017-04-09T04:44:33.452Z,4.00
2017-04-09T04:45:32.994Z,4.10
2017-04-09T04:46:33.309Z,4.00
2017-04-09T04:47:33.748Z,4.00
2017-04-09T04:48:34.484Z,4.00
2017-04-09T04:49:34.203Z,4.10
2017-04-09T04:50:33.788Z,4.10
2017-04-09T04:51:33.396Z,4.10
2017-04-09T04:52:32.943Z,4.10
2017-04-09T04:54:32.466Z,4.00
2017-04-09T04:55:32.875Z,4.00
2017-04-09T04:56:33.184Z,4.00
2017-04-09T04:57:33.544Z,4.10
2017-04-09T04:58:33.109Z,4.20
2017-04-09T04:59:33.501Z,4.20
2017-04-09T05:01:32.852Z,4.20
2017-04-09T05:02:32.411Z,4.20
2017-04-09T05:03:32.750Z,4.20
2017-04-09T05:04:32.316Z,4.30
2017-04-09T05:05:32.633Z,4.20
2017-04-09T05:06:32.951Z,4.20
2017-04-09T05:07:33.467Z,4.20
2017-04-09T05:08:33.788Z,4.20
2017-04-09T05:09:34.267Z,4.20
2017-04-09T05:10:33.913Z,4.20
2017-04-09T05:11:34.182Z,4.20
2017-04-09T05:12:33.771Z,4.30
2017-04-09T05:13:33.318Z,4.30
2017-04-09T05:14:33.742Z,4.20
2017-04-09T05:15:33.337Z,4.30
2017-04-09T05:16:33.663Z,4.30
2017-04-09T05:17:33.340Z,4.30
2017-04-09T05:19:33.464Z,4.30
2017-04-09T05:20:33.763Z,4.30
2017-04-09T05:22:33.172Z,4.30
2017-04-09T05:23:33.511Z,4.30
2017-04-09T05:24:33.268Z,4.40
2017-04-09T05:25:32.983Z,4.40
2017-04-09T05:26:33.287Z,4.40
2017-04-09T05:27:33.076Z,4.50
2017-04-09T05:28:32.705Z,4.50
2017-04-09T05:29:33.071Z,4.50
2017-04-09T05:30:32.619Z,4.60
2017-04-09T05:31:32.935Z,4.60
2017-04-09T05:32:33.475Z,4.60
2017-04-09T05:33:33.165Z,4.60
2017-04-09T05:34:33.948Z,4.60
2017-04-09T05:35:33.504Z,4.70
2017-04-09T05:36:33.051Z,4.80
2017-04-09T05:37:32.613Z,4.80
2017-04-09T05:38:32.229Z,4.80
2017-04-09T05:39:31.811Z,4.90
2017-04-09T05:40:31.471Z,4.90
2017-04-09T05:41:31.787Z,4.90
2017-04-09T05:42:31.368Z,4.90
2017-04-09T05:46:31.289Z,5.00
2017-04-09T05:47:31.353Z,5.00
2017-04-09T05:48:31.085Z,5.10
2017-04-09T05:49:30.784Z,5.10
2017-04-09T05:50:30.518Z,5.10
2017-04-09T05:51:30.816Z,5.10
2017-04-09T05:52:31.996Z,5.20
2017-04-09T05:53:31.603Z,5.20
2017-04-09T05:54:31.246Z,5.30
2017-04-09T05:55:31.506Z,5.30
2017-04-09T05:56:31.058Z,5.40
2017-04-09T05:58:30.649Z,5.50
2017-04-09T05:59:30.237Z,5.60
2017-04-09T06:00:29.837Z,5.60
2017-04-09T06:01:29.439Z,5.60
2017-04-09T06:02:29.002Z,5.70
2017-04-09T06:03:29.051Z,5.70
2017-04-09T06:04:28.624Z,5.80
2017-04-09T06:05:28.271Z,5.80
2017-04-09T06:06:28.603Z,5.80
2017-04-09T06:07:28.264Z,6.00
2017-04-09T06:08:28.467Z,6.00
2017-04-09T06:09:28.055Z,6.10
2017-04-09T06:10:27.743Z,6.10
2017-04-09T06:11:27.311Z,6.20
2017-04-09T06:12:27.672Z,6.20
2017-04-09T06:13:27.277Z,6.30
2017-04-09T06:14:26.927Z,6.40
2017-04-09T06:15:26.469Z,6.40
2017-04-09T06:16:26.129Z,6.50
2017-04-09T06:17:25.677Z,6.50
2017-04-09T06:18:25.374Z,6.60
2017-04-09T06:19:24.936Z,6.60
2017-04-09T06:20:25.128Z,6.70
2017-04-09T06:21:24.887Z,6.70
2017-04-09T06:22:24.586Z,6.80
2017-04-09T06:23:24.175Z,6.90
2017-04-09T06:24:24.005Z,6.90
2017-04-09T06:25:24.296Z,6.90
2017-04-09T06:26:23.939Z,7.00
2017-04-09T06:27:24.349Z,7.00
2017-04-09T06:28:24.690Z,7.10
2017-04-09T06:29:24.367Z,7.20
2017-04-09T06:30:23.935Z,7.20
2017-04-09T06:31:23.488Z,7.30
2017-04-09T06:32:23.063Z,7.30
2017-04-09T06:33:22.715Z,7.40
2017-04-09T06:34:22.418Z,7.40
2017-04-09T06:35:22.019Z,7.50
2017-04-09T06:36:21.835Z,7.50
2017-04-09T06:37:22.159Z,7.50
2017-04-09T06:38:22.514Z,7.50
2017-04-09T06:39:22.085Z,7.70
2017-04-09T06:40:21.668Z,7.70
2017-04-09T06:41:21.963Z,7.70
2017-04-09T06:42:21.547Z,7.80
2017-04-09T06:43:21.098Z,7.80
2017-04-09T06:44:22.069Z,7.80
2017-04-09T06:45:21.706Z,7.90
2017-04-09T06:46:22.005Z,8.00
2017-04-09T06:48:21.446Z,8.10
2017-04-09T06:49:21.008Z,8.20
2017-04-09T06:50:21.303Z,8.10
2017-04-09T06:51:21.032Z,8.30
2017-04-09T06:52:21.356Z,8.20
2017-04-09T06:53:20.919Z,8.30
2017-04-09T06:54:20.752Z,8.30
2017-04-09T06:55:21.160Z,8.30
2017-04-09T06:56:21.446Z,8.40
2017-04-09T06:57:21.032Z,8.50
2017-04-09T06:58:20.748Z,8.60
2017-04-09T06:59:20.490Z,8.70
2017-04-09T07:00:20.723Z,8.70
2017-04-09T07:01:20.282Z,8.80
2017-04-09T07:02:20.648Z,8.80
2017-04-09T07:03:20.492Z,8.90
2017-04-09T07:05:20.388Z,9.00
2017-04-09T07:06:19.992Z,9.10
2017-04-09T07:07:19.632Z,9.10
2017-04-09T07:08:19.204Z,9.20
2017-04-09T07:09:19.461Z,9.20
2017-04-09T07:10:19.041Z,9.20
2017-04-09T07:11:18.618Z,9.20
2017-04-09T07:12:18.921Z,9.20
2017-04-09T07:13:19.328Z,9.30
2017-04-09T07:14:19.156Z,9.40
2017-04-09T07:15:18.789Z,9.50
2017-04-09T07:16:18.357Z,9.50
2017-04-09T07:17:17.927Z,9.60
2017-04-09T07:18:17.540Z,9.80
2017-04-09T07:19:17.091Z,9.80
2017-04-09T07:20:17.323Z,9.80
2017-04-09T07:21:16.953Z,9.90
2017-04-09T07:22:16.587Z,9.90
2017-04-09T07:23:16.144Z,10.00
2017-04-09T07:24:15.773Z,10.00
2017-04-09T07:25:15.372Z,10.10
2017-04-09T07:26:14.937Z,10.10
2017-04-09T07:27:14.499Z,10.20
2017-04-09T07:28:14.110Z,10.20
2017-04-09T07:29:13.721Z,10.30
2017-04-09T07:30:13.264Z,10.40
2017-04-09T07:31:12.848Z,10.40
2017-04-09T07:32:12.408Z,10.40
2017-04-09T07:33:12.380Z,10.50
2017-04-09T07:34:11.940Z,10.50
2017-04-09T07:35:11.624Z,10.60
2017-04-09T07:36:11.919Z,10.60
2017-04-09T07:37:11.482Z,8.90
2017-04-09T07:38:11.279Z,10.80
2017-04-09T07:39:11.157Z,10.80
2017-04-09T07:40:10.848Z,10.90
2017-04-09T07:41:10.408Z,10.90
2017-04-09T07:43:10.226Z,11.00
2017-04-09T07:44:09.864Z,11.10
2017-04-09T07:45:09.462Z,11.20
2017-04-09T07:46:09.851Z,11.20
2017-04-09T07:47:09.451Z,11.90
2017-04-09T07:48:09.196Z,11.30
2017-04-09T07:49:09.060Z,11.40
2017-04-09T07:50:09.490Z,11.40
2017-04-09T07:51:09.794Z,11.40
2017-04-09T07:52:10.219Z,11.50
2017-04-09T07:53:11.009Z,11.60
2017-04-09T07:54:10.656Z,11.70
2017-04-09T07:55:11.003Z,11.70
2017-04-09T07:56:10.628Z,11.80
2017-04-09T07:57:10.333Z,11.90
2017-04-09T07:58:09.986Z,11.90
2017-04-09T07:59:09.716Z,11.90
2017-04-09T08:00:09.545Z,12.00
2017-04-09T08:01:09.395Z,12.10
2017-04-09T08:02:09.113Z,12.00
2017-04-09T08:03:08.685Z,12.00
2017-04-09T08:04:08.299Z,12.10
2017-04-09T08:05:08.041Z,12.10
2017-04-09T08:06:08.333Z,12.10
2017-04-09T08:07:07.916Z,12.20
2017-04-09T08:08:07.544Z,12.20
2017-04-09T08:09:07.261Z,12.30
2017-04-09T08:10:06.883Z,12.30
2017-04-09T08:11:06.883Z,12.40
2017-04-09T08:12:06.510Z,9.50
2017-04-09T08:13:06.105Z,12.50
2017-04-09T08:14:05.721Z,12.60
2017-04-09T08:15:05.651Z,12.60
2017-04-09T08:16:05.390Z,12.70
2017-04-09T08:17:05.086Z,12.70
2017-04-09T08:18:04.661Z,12.70
2017-04-09T08:19:04.243Z,12.80
2017-04-09T08:20:03.896Z,12.80
2017-04-09T08:21:03.485Z,12.80
2017-04-09T08:22:03.084Z,12.80
2017-04-09T08:23:02.683Z,12.80
2017-04-09T08:24:02.249Z,12.90
2017-04-09T08:25:01.964Z,13.00
2017-04-09T08:26:01.920Z,13.00
2017-04-09T08:27:01.552Z,12.90
2017-04-09T08:28:01.231Z,13.10
2017-04-09T08:29:00.981Z,13.20
2017-04-09T08:30:00.558Z,13.30
2017-04-09T08:31:00.196Z,13.30
2017-04-09T08:31:59.802Z,13.40
2017-04-09T08:32:59.410Z,13.50
2017-04-09T08:33:59.007Z,13.60
2017-04-09T08:34:58.640Z,13.50
2017-04-09T08:35:58.225Z,13.60
2017-04-09T08:36:57.807Z,13.60
2017-04-09T08:37:57.425Z,13.60
2017-04-09T08:38:57.004Z,13.70
2017-04-09T08:39:56.743Z,13.80
2017-04-09T08:40:56.474Z,13.80
2017-04-09T08:41:56.083Z,13.90
2017-04-09T08:42:55.729Z,13.90
2017-04-09T08:43:55.345Z,13.90
2017-04-09T08:44:54.988Z,14.00
2017-04-09T08:45:54.603Z,14.00
2017-04-09T08:46:54.191Z,14.00
2017-04-09T08:47:53.844Z,14.10
2017-04-09T08:48:53.470Z,13.00
2017-04-09T08:49:53.037Z,14.20
2017-04-09T08:50:53.114Z,14.30
2017-04-09T08:51:52.728Z,14.30
2017-04-09T08:52:52.342Z,14.40
2017-04-09T08:53:51.965Z,14.40
2017-04-09T08:54:51.555Z,14.40
2017-04-09T08:55:51.252Z,14.40
2017-04-09T08:56:50.818Z,14.40
2017-04-09T08:57:50.857Z,14.50
2017-04-09T08:58:50.418Z,14.40
2017-04-09T08:59:50.055Z,14.40
2017-04-09T09:00:50.055Z,14.40
2017-04-09T09:01:49.672Z,14.40
2017-04-09T09:02:49.352Z,14.40
2017-04-09T09:03:48.934Z,14.40
2017-04-09T09:04:48.966Z,14.40
2017-04-09T09:05:48.540Z,14.50
2017-04-09T09:06:48.076Z,14.60
2017-04-09T09:07:47.715Z,14.60
2017-04-09T09:08:47.377Z,14.70
2017-04-09T09:09:47.103Z,14.70
2017-04-09T09:10:46.676Z,14.70
2017-04-09T09:11:46.288Z,14.70
2017-04-09T09:12:46.567Z,14.70
2017-04-09T09:13:46.184Z,14.70
2017-04-09T09:14:45.863Z,14.80
2017-04-09T09:15:45.478Z,14.90
2017-04-09T09:16:45.044Z,14.80
2017-04-09T09:17:44.612Z,14.80
2017-04-09T09:18:44.205Z,14.90
2017-04-09T09:19:43.854Z,14.90
2017-04-09T09:20:43.423Z,14.90
2017-04-09T09:21:42.996Z,15.00
2017-04-09T09:22:42.680Z,15.10
2017-04-09T09:23:42.367Z,15.20
2017-04-09T09:24:42.004Z,15.10
2017-04-09T09:25:41.591Z,15.10
2017-04-09T09:26:41.279Z,15.30
2017-04-09T09:27:40.891Z,15.40
2017-04-09T09:28:40.628Z,15.40
2017-04-09T09:29:40.955Z,15.40
2017-04-09T09:30:40.539Z,15.50
2017-04-09T09:31:41.221Z,15.50
2017-04-09T09:32:40.799Z,15.60
2017-04-09T09:33:40.471Z,15.50
2017-04-09T09:34:40.763Z,15.60
2017-04-09T09:35:41.105Z,15.60
2017-04-09T09:37:40.589Z,15.70
2017-04-09T09:38:40.921Z,15.60
2017-04-09T09:39:40.701Z,15.70
2017-04-09T09:41:40.304Z,15.80
2017-04-09T09:43:39.877Z,15.70
2017-04-09T09:44:39.442Z,15.70
2017-04-09T09:45:39.107Z,15.60
2017-04-09T09:46:39.416Z,15.60
2017-04-09T09:47:40.596Z,15.80
2017-04-09T09:48:40.317Z,15.90
2017-04-09T09:49:39.931Z,15.90
2017-04-09T09:50:39.504Z,16.00
2017-04-09T09:51:39.084Z,16.00
2017-04-09T09:52:38.615Z,16.10
2017-04-09T09:53:38.203Z,16.00
2017-04-09T09:54:37.749Z,16.00
2017-04-09T09:55:37.439Z,16.00
2017-04-09T09:56:37.013Z,16.00
2017-04-09T09:57:37.815Z,16.10
2017-04-09T09:58:38.135Z,16.10
2017-04-09T09:59:37.896Z,16.20
2017-04-09T10:00:37.502Z,16.30
2017-04-09T10:01:37.217Z,15.20
2017-04-09T10:02:36.816Z,16.40
2017-04-09T10:03:36.383Z,16.40
2017-04-09T10:04:36.016Z,16.50
2017-04-09T10:05:35.986Z,16.60
2017-04-09T10:06:35.619Z,16.70
2017-04-09T10:07:35.655Z,16.70
2017-04-09T10:08:35.225Z,16.70
2017-04-09T10:09:34.769Z,16.60
2017-04-09T10:10:34.319Z,16.60
2017-04-09T10:11:33.936Z,16.70
2017-04-09T10:12:33.496Z,16.70
2017-04-09T10:13:33.168Z,16.80
2017-04-09T10:14:32.723Z,16.90
2017-04-09T10:15:32.282Z,16.90
2017-04-09T10:16:31.932Z,17.00
2017-04-09T10:17:31.654Z,17.00
2017-04-09T10:18:31.291Z,17.20
2017-04-09T10:19:30.863Z,17.20
2017-04-09T10:20:30.603Z,17.30
2017-04-09T10:21:30.368Z,17.40
2017-04-09T10:22:29.916Z,17.40
2017-04-09T10:23:29.820Z,17.40
2017-04-09T10:24:29.379Z,17.30
2017-04-09T10:25:29.670Z,17.40
2017-04-09T10:26:29.214Z,17.40
2017-04-09T10:27:28.808Z,17.50
2017-04-09T10:28:28.386Z,17.60
2017-04-09T10:29:27.949Z,17.60
2017-04-09T10:30:27.505Z,17.60
2017-04-09T10:31:27.148Z,17.60
2017-04-09T10:32:26.712Z,17.70
2017-04-09T10:33:26.306Z,17.60
2017-04-09T10:34:25.909Z,17.70
2017-04-09T10:35:25.468Z,17.80
2017-04-09T10:36:25.739Z,17.90
2017-04-09T10:37:25.302Z,17.90
2017-04-09T10:38:24.887Z,17.90
2017-04-09T10:39:24.503Z,17.90
2017-04-09T10:40:24.070Z,17.90
2017-04-09T10:41:23.716Z,18.00
2017-04-09T10:42:23.365Z,17.90
2017-04-09T10:43:22.923Z,17.90
2017-04-09T10:44:22.644Z,17.90
2017-04-09T10:45:22.624Z,17.80
2017-04-09T10:46:22.205Z,17.80
2017-04-09T10:47:21.764Z,17.90
2017-04-09T10:48:21.379Z,18.00
2017-04-09T10:49:20.965Z,18.10
2017-04-09T10:50:21.250Z,18.20
2017-04-09T10:51:20.891Z,18.20
2017-04-09T10:52:20.586Z,18.20
2017-04-09T10:53:20.170Z,18.20
2017-04-09T10:54:20.017Z,18.30
2017-04-09T10:55:19.610Z,18.40
2017-04-09T10:56:19.208Z,18.40
2017-04-09T10:57:18.827Z,18.30
2017-04-09T10:58:18.456Z,18.30
2017-04-09T10:59:18.003Z,18.30
2017-04-09T11:00:17.600Z,18.20
2017-04-09T11:01:17.955Z,18.20
2017-04-09T11:02:18.764Z,18.20
2017-04-09T11:03:18.369Z,18.20
2017-04-09T11:04:18.068Z,18.20
2017-04-09T11:05:17.615Z,18.10
2017-04-09T11:06:17.213Z,18.10
2017-04-09T11:07:16.975Z,18.20
2017-04-09T11:09:16.686Z,18.50
2017-04-09T11:10:17.396Z,18.50
2017-04-09T11:11:17.208Z,18.60
2017-04-09T11:12:17.592Z,18.50
2017-04-09T11:13:17.282Z,18.60
2017-04-09T11:14:17.301Z,18.60
2017-04-09T11:15:16.935Z,18.50
2017-04-09T11:16:17.275Z,18.60
2017-04-09T11:17:16.891Z,18.70
2017-04-09T11:18:16.520Z,18.80
2017-04-09T11:19:16.140Z,18.80
2017-04-09T11:20:16.508Z,18.80
2017-04-09T11:21:16.131Z,18.80
2017-04-09T11:22:15.708Z,18.70
2017-04-09T11:23:15.377Z,18.70
2017-04-09T11:24:15.688Z,18.50
2017-04-09T11:25:15.321Z,18.80
2017-04-09T11:26:14.912Z,18.90
2017-04-09T11:27:14.538Z,19.00
2017-04-09T11:28:14.189Z,19.00
2017-04-09T11:29:14.050Z,19.10
2017-04-09T11:30:13.719Z,19.10
2017-04-09T11:31:13.377Z,19.20
2017-04-09T11:32:13.699Z,19.10
2017-04-09T11:33:14.026Z,19.10
2017-04-09T11:34:13.667Z,19.20
2017-04-09T11:36:13.876Z,19.10
2017-04-09T11:37:13.508Z,19.10
2017-04-09T11:38:13.987Z,19.00
2017-04-09T11:39:13.623Z,19.10
2017-04-09T11:40:13.319Z,19.20
2017-04-09T11:41:12.984Z,19.30
2017-04-09T11:42:12.604Z,19.40
2017-04-09T11:43:12.575Z,19.40
2017-04-09T11:44:12.252Z,19.30
2017-04-09T11:45:11.851Z,19.30
2017-04-09T11:46:11.444Z,19.50
2017-04-09T11:47:11.035Z,19.60
2017-04-09T11:48:11.432Z,19.70
2017-04-09T11:49:11.027Z,19.70
2017-04-09T11:50:10.640Z,19.70
2017-04-09T11:51:11.051Z,19.60
2017-04-09T11:52:11.375Z,19.60
2017-04-09T11:53:11.728Z,19.70
2017-04-09T11:54:11.324Z,19.80
2017-04-09T11:55:10.914Z,19.80
2017-04-09T11:56:10.613Z,19.80
2017-04-09T11:57:10.239Z,19.80
2017-04-09T11:58:09.913Z,19.70
2017-04-09T11:59:09.509Z,19.70
2017-04-09T12:00:09.119Z,19.80
2017-04-09T12:01:08.881Z,19.90
2017-04-09T12:02:08.536Z,20.00
2017-04-09T12:03:08.125Z,20.00
2017-04-09T12:04:07.729Z,20.20
2017-04-09T12:05:07.389Z,20.30
2017-04-09T12:06:08.097Z,20.40
2017-04-09T12:07:07.731Z,20.40
2017-04-09T12:08:07.769Z,20.40
2017-04-09T12:09:07.383Z,20.50
2017-04-09T12:10:06.921Z,20.60
2017-04-09T12:11:06.540Z,20.70
2017-04-09T12:12:06.151Z,20.70
2017-04-09T12:13:06.491Z,20.70
2017-04-09T12:14:06.100Z,20.80
2017-04-09T12:15:05.668Z,20.70
2017-04-09T12:16:05.216Z,20.60
2017-04-09T12:17:04.800Z,20.60
2017-04-09T12:18:04.401Z,20.50
2017-04-09T12:19:03.985Z,20.60
2017-04-09T12:20:03.540Z,20.60
2017-04-09T12:21:03.182Z,20.50
2017-04-09T12:22:02.742Z,20.40
2017-04-09T12:23:02.387Z,20.30
2017-04-09T12:24:01.934Z,20.30
2017-04-09T12:25:01.491Z,20.30
2017-04-09T12:26:01.047Z,20.30
2017-04-09T12:27:00.675Z,20.30
2017-04-09T12:28:00.344Z,20.30
2017-04-09T12:28:59.916Z,20.30
2017-04-09T12:29:59.490Z,20.30
2017-04-09T12:30:59.140Z,20.40
2017-04-09T12:31:58.738Z,20.40
2017-04-09T12:32:58.326Z,20.60
2017-04-09T12:33:57.954Z,20.60
2017-04-09T12:34:57.496Z,20.70
2017-04-09T12:35:57.173Z,20.80
2017-04-09T12:36:56.724Z,20.70
2017-04-09T12:37:56.278Z,20.70
2017-04-09T12:38:55.904Z,20.70
2017-04-09T12:39:55.535Z,20.70
2017-04-09T12:40:55.090Z,20.80
2017-04-09T12:41:54.668Z,20.70
2017-04-09T12:42:54.211Z,20.80
2017-04-09T12:43:53.792Z,21.00
2017-04-09T12:44:53.359Z,21.10
2017-04-09T12:45:52.940Z,21.10
2017-04-09T12:46:52.659Z,21.10
2017-04-09T12:47:52.251Z,21.20
2017-04-09T12:48:51.999Z,21.20
2017-04-09T12:49:51.667Z,21.10
2017-04-09T12:50:51.285Z,21.10
2017-04-09T12:51:50.871Z,21.20
2017-04-09T12:52:50.892Z,21.20
2017-04-09T12:53:50.649Z,21.20
2017-04-09T12:54:50.267Z,21.20
2017-04-09T12:55:49.840Z,21.40
2017-04-09T12:56:50.155Z,21.40
2017-04-09T12:57:50.748Z,21.50
2017-04-09T12:58:50.492Z,21.60
2017-04-09T12:59:50.060Z,21.50
2017-04-09T13:00:50.879Z,21.50
2017-04-09T13:01:50.479Z,21.60
2017-04-09T13:02:50.903Z,21.50
2017-04-09T13:03:51.191Z,21.50
2017-04-09T13:04:50.930Z,21.50
2017-04-09T13:05:51.411Z,21.60
2017-04-09T13:06:51.043Z,21.60
2017-04-09T13:07:51.495Z,21.70
2017-04-09T13:08:51.209Z,21.80
2017-04-09T13:09:50.805Z,21.80
2017-04-09T13:10:50.559Z,22.00
2017-04-09T13:11:51.063Z,22.10
2017-04-09T13:12:50.667Z,22.20
2017-04-09T13:13:50.222Z,22.10
2017-04-09T13:14:49.828Z,22.20
2017-04-09T13:15:49.455Z,22.00
2017-04-09T13:16:49.185Z,21.90
2017-04-09T13:17:48.820Z,21.80
2017-04-09T13:18:48.439Z,21.90
2017-04-09T13:19:48.067Z,22.00
2017-04-09T13:20:47.679Z,22.20
2017-04-09T13:21:47.935Z,22.40
2017-04-09T13:22:47.516Z,22.50
2017-04-09T13:23:47.180Z,22.50
2017-04-09T13:24:46.773Z,22.50
2017-04-09T13:25:46.433Z,22.60
2017-04-09T13:26:46.026Z,22.40
2017-04-09T13:27:45.625Z,22.50
2017-04-09T13:28:45.175Z,22.60
2017-04-09T13:29:44.773Z,22.70
2017-04-09T13:30:44.410Z,22.50
2017-04-09T13:31:44.112Z,22.50
2017-04-09T13:32:43.769Z,22.50
2017-04-09T13:33:43.439Z,22.30
2017-04-09T13:34:43.735Z,22.30